Time;durP1;ratioP1;P1;durP2;ratioP2;P2;SDS_P1;SDS_P2;PMS_P1;PMS_P2;Temp;Humidity;BMP_temperature;BMP_pressure;BME280_temperature;BME280_humidity;BME280_pressure;Samples;Min_cycle;Max_cycle;Signal;HPM_P1;HPM_P2
2021/06/21 00:00:33;;;;;;;5.80;3.97;;;;;;;17.14;100.00;97107.53;5102417;28;20209;-69
2021/06/21 00:03:01;;;;;;;7.37;4.87;;;;;;;17.10;100.00;97109.84;5098053;28;20726;-67
2021/06/21 00:05:30;;;;;;;7.43;5.03;;;;;;;17.06;100.00;97112.16;5102537;28;20198;-69
2021/06/21 00:07:58;;;;;;;10.10;4.97;;;;;;;17.01;100.00;97121.91;5096731;28;20279;-72
2021/06/21 00:10:26;;;;;;;8.23;4.93;;;;;;;16.95;100.00;97130.81;5102180;28;20213;-67
2021/06/21 00:12:54;;;;;;;7.87;5.13;;;;;;;16.92;100.00;97132.91;5104537;28;20209;-67
2021/06/21 00:15:24;;;;;;;9.57;5.40;;;;;;;16.90;100.00;97126.97;5103901;27;20698;-68
2021/06/21 00:17:53;;;;;;;8.37;4.77;;;;;;;16.90;100.00;97124.28;5103824;27;20240;-68
2021/06/21 00:20:21;;;;;;;7.47;4.53;;;;;;;16.87;100.00;97134.63;5098693;28;20380;-67
2021/06/21 00:22:52;;;;;;;6.97;5.30;;;;;;;16.85;100.00;97126.00;5104362;28;20212;-68
2021/06/21 00:25:20;;;;;;;6.07;5.13;;;;;;;16.98;100.00;97101.78;5099337;28;20396;-70
2021/06/21 00:27:49;;;;;;;8.37;5.13;;;;;;;16.94;100.00;97084.53;5102064;28;20778;-68
2021/06/21 00:30:19;;;;;;;8.27;5.03;;;;;;;17.09;100.00;97073.44;5100605;27;20667;-67
2021/06/21 00:32:47;;;;;;;6.80;4.80;;;;;;;17.07;100.00;97072.84;5103714;28;20208;-70
2021/06/21 00:35:17;;;;;;;9.07;4.83;;;;;;;16.96;100.00;97074.41;5100095;28;20229;-68
2021/06/21 00:37:46;;;;;;;8.43;5.17;;;;;;;17.01;100.00;97095.97;5099851;28;20229;-69
2021/06/21 00:40:16;;;;;;;8.00;5.40;;;;;;;16.91;100.00;97096.47;5098972;28;20236;-69
2021/06/21 00:42:46;;;;;;;10.60;5.07;;;;;;;16.92;100.00;97095.44;5101693;28;20209;-68
2021/06/21 00:45:16;;;;;;;9.77;4.83;;;;;;;16.87;100.00;97081.13;5106608;27;20837;-66
2021/06/21 00:47:45;;;;;;;7.77;4.73;;;;;;;16.82;100.00;97070.25;5099463;27;20367;-68
2021/06/21 00:50:14;;;;;;;7.80;4.83;;;;;;;16.83;100.00;97078.06;5104277;28;20210;-66
2021/06/21 00:52:42;;;;;;;8.03;5.67;;;;;;;16.77;100.00;97082.47;5100834;28;20577;-66
2021/06/21 00:55:12;;;;;;;10.63;5.30;;;;;;;16.73;100.00;97081.28;5101267;28;20726;-65
2021/06/21 00:57:41;;;;;;;7.43;5.57;;;;;;;16.76;100.00;97077.34;5101868;28;20237;-68
2021/06/21 01:00:11;;;;;;;8.20;5.60;;;;;;;16.70;100.00;97087.09;5100284;28;20197;-68
2021/06/21 01:02:40;;;;;;;8.77;5.60;;;;;;;16.71;100.00;97103.97;5103481;28;20201;-69
2021/06/21 01:05:09;;;;;;;8.37;4.90;;;;;;;16.79;100.00;97111.69;5103358;28;20212;-68
2021/06/21 01:07:37;;;;;;;6.77;5.27;;;;;;;16.88;100.00;97106.84;5100025;28;20225;-69
2021/06/21 01:10:06;;;;;;;10.60;5.30;;;;;;;16.77;100.00;97109.22;5104739;28;20212;-70
2021/06/21 01:12:53;;;;;;;7.07;5.27;;;;;;;16.85;100.00;97102.75;5102083;27;20492;-69
2021/06/21 01:15:24;;;;;;;6.83;5.10;;;;;;;16.88;100.00;97114.88;5104535;28;20597;-69
2021/06/21 01:17:54;;;;;;;9.73;5.00;;;;;;;16.83;100.00;97122.72;5102369;28;20234;-67
2021/06/21 01:20:45;;;;;;;10.10;5.37;;;;;;;16.74;100.00;97136.41;5099563;28;20206;-67
2021/06/21 01:23:55;;;;;;;8.33;5.33;;;;;;;16.76;100.00;97136.22;5103279;28;20600;-67
2021/06/21 01:26:26;;;;;;;7.23;5.10;;;;;;;16.88;100.00;97134.41;5103464;28;20212;-68
2021/06/21 01:29:26;;;;;;;12.20;6.03;;;;;;;16.93;100.00;97142.56;5103619;28;20721;-69
2021/06/21 01:31:57;;;;;;;12.33;5.83;;;;;;;16.83;100.00;97139.63;5084333;28;20307;-67
2021/06/21 01:34:29;;;;;;;7.77;5.20;;;;;;;16.86;100.00;97125.78;5102552;28;20198;-67
2021/06/21 01:37:00;;;;;;;7.27;5.00;;;;;;;16.82;100.00;97121.09;5102358;28;20229;-69
2021/06/21 01:39:32;;;;;;;6.53;5.13;;;;;;;16.84;100.00;97127.88;5103816;27;20248;-68
2021/06/21 01:42:07;;;;;;;7.70;5.50;;;;;;;16.87;100.00;97135.44;5101880;28;20198;-68
2021/06/21 01:44:40;;;;;;;5.90;4.70;;;;;;;16.73;100.00;97145.50;5102422;28;20550;-70
2021/06/21 01:47:15;;;;;;;8.20;5.70;;;;;;;16.75;100.00;97135.38;5100026;28;20690;-68
2021/06/21 01:49:47;;;;;;;7.13;5.53;;;;;;;16.69;100.00;97140.84;5102248;28;20235;-68
2021/06/21 01:52:16;;;;;;;9.53;5.53;;;;;;;16.62;100.00;97147.06;5102433;27;20219;-67
2021/06/21 01:54:46;;;;;;;7.37;5.63;;;;;;;16.62;100.00;97143.56;5102235;27;20208;-67
2021/06/21 01:57:15;;;;;;;12.43;5.73;;;;;;;16.56;100.00;97155.19;5101190;28;20229;-68
2021/06/21 01:59:44;;;;;;;8.70;6.33;;;;;;;16.52;100.00;97148.63;5102717;27;20205;-67
2021/06/21 02:02:12;;;;;;;7.43;6.23;;;;;;;16.55;100.00;97142.84;5105213;27;20202;-68
2021/06/21 02:04:40;;;;;;;7.63;6.10;;;;;;;16.58;100.00;97150.41;5101618;28;20198;-68
2021/06/21 02:07:10;;;;;;;10.20;6.40;;;;;;;16.46;100.00;97153.00;5103593;27;20224;-68
2021/06/21 02:09:38;;;;;;;8.83;6.70;;;;;;;16.42;100.00;97165.19;5099569;28;20194;-67
2021/06/21 02:12:07;;;;;;;7.03;5.57;;;;;;;16.41;100.00;97161.69;5101548;28;20212;-66
2021/06/21 02:14:35;;;;;;;12.97;5.37;;;;;;;16.48;100.00;97157.09;5100775;28;20210;-67
2021/06/21 02:17:04;;;;;;;7.27;6.00;;;;;;;16.45;100.00;97173.56;5100920;28;20226;-70
2021/06/21 02:19:33;;;;;;;8.33;5.47;;;;;;;16.32;100.00;97166.53;5100385;28;20202;-69
2021/06/21 02:22:01;;;;;;;7.03;6.27;;;;;;;16.26;100.00;97161.25;5099440;28;20205;-67
2021/06/21 02:24:31;;;;;;;6.73;5.57;;;;;;;16.27;100.00;97152.97;5104284;27;20205;-69
2021/06/21 02:26:59;;;;;;;6.03;5.20;;;;;;;16.25;100.00;97164.94;5099187;28;20674;-68
2021/06/21 02:29:28;;;;;;;23.00;6.23;;;;;;;16.33;100.00;97161.97;5102011;28;20198;-68
2021/06/21 02:31:56;;;;;;;6.67;5.10;;;;;;;16.26;100.00;97170.06;5101043;28;20232;-70
2021/06/21 02:34:25;;;;;;;9.40;5.40;;;;;;;16.21;100.00;97175.25;5104096;27;20205;-68
2021/06/21 02:36:54;;;;;;;8.30;5.30;;;;;;;16.14;100.00;97182.53;5094611;28;20229;-69
2021/06/21 02:39:22;;;;;;;9.03;5.70;;;;;;;16.13;100.00;97189.75;5099445;28;20254;-68
2021/06/21 02:41:51;;;;;;;10.00;5.70;;;;;;;16.16;100.00;97191.13;5096610;28;20221;-68
2021/06/21 02:44:19;;;;;;;11.53;5.70;;;;;;;16.11;100.00;97197.16;5095626;28;20288;-69
2021/06/21 02:46:47;;;;;;;8.13;5.20;;;;;;;16.05;100.00;97182.81;5099565;28;20217;-67
2021/06/21 02:49:15;;;;;;;7.07;5.03;;;;;;;16.01;100.00;97188.81;5095453;28;20202;-66
2021/06/21 02:51:50;;;;;;;8.53;5.27;;;;;;;15.96;100.00;97186.81;5098170;28;20292;-68
2021/06/21 02:54:24;;;;;;;6.70;4.80;;;;;;;15.96;100.00;97183.31;5098379;28;20202;-68
2021/06/21 02:56:59;;;;;;;7.73;4.63;;;;;;;15.99;100.00;97189.03;5092794;28;20700;-70
2021/06/21 02:59:29;;;;;;;4.63;4.17;;;;;;;15.97;100.00;97190.28;5100190;28;20193;-68
2021/06/21 03:01:58;;;;;;;6.23;4.70;;;;;;;15.91;100.00;97194.66;5100655;27;20282;-69
2021/06/21 03:04:28;;;;;;;7.07;4.67;;;;;;;15.95;100.00;97198.53;5102542;28;20208;-68
2021/06/21 03:06:57;;;;;;;6.13;4.27;;;;;;;15.89;100.00;97204.72;5100628;28;20213;-70
2021/06/21 03:09:26;;;;;;;6.53;4.77;;;;;;;15.84;100.00;97208.03;5102482;28;20217;-68
2021/06/21 03:11:55;;;;;;;4.97;4.47;;;;;;;15.94;100.00;97206.75;5098656;28;20212;-69
2021/06/21 03:14:24;;;;;;;8.13;5.00;;;;;;;15.84;100.00;97197.34;5097517;28;20221;-69
2021/06/21 03:16:53;;;;;;;4.50;3.87;;;;;;;15.87;100.00;97198.75;5098989;28;20240;-67
2021/06/21 03:19:22;;;;;;;8.50;4.23;;;;;;;15.86;100.00;97208.63;5097347;28;20211;-68
2021/06/21 03:21:50;;;;;;;9.73;5.43;;;;;;;15.84;100.00;97208.03;5098575;28;20227;-68
2021/06/21 03:24:23;;;;;;;9.57;4.80;;;;;;;15.85;100.00;97215.00;5101714;28;20208;-69
2021/06/21 03:26:51;;;;;;;9.80;4.47;;;;;;;15.90;100.00;97223.22;5102729;28;20704;-69
2021/06/21 03:29:21;;;;;;;7.23;4.57;;;;;;;15.94;100.00;97215.59;5097502;28;20197;-68
2021/06/21 03:31:51;;;;;;;6.87;4.13;;;;;;;16.02;100.00;97212.66;5096959;28;20287;-67
2021/06/21 03:34:20;;;;;;;6.97;5.10;;;;;;;16.17;100.00;97212.31;5102913;28;20584;-67
2021/06/21 03:36:49;;;;;;;9.87;5.53;;;;;;;16.23;100.00;97213.28;5102431;28;20581;-69
2021/06/21 03:39:17;;;;;;;5.00;4.00;;;;;;;16.26;100.00;97218.19;5098196;28;20225;-69
2021/06/21 03:41:45;;;;;;;6.27;3.83;;;;;;;16.18;100.00;97221.97;5097283;28;20232;-68
2021/06/21 03:44:13;;;;;;;8.43;4.10;;;;;;;16.22;100.00;97222.34;5103370;28;20689;-69
2021/06/21 03:46:42;;;;;;;7.13;3.93;;;;;;;16.33;100.00;97231.50;5113332;28;20212;-70
2021/06/21 03:49:10;;;;;;;9.23;4.47;;;;;;;16.43;100.00;97220.31;5110377;28;20206;-71
2021/06/21 03:51:38;;;;;;;7.50;4.60;;;;;;;16.48;100.00;97223.97;5105200;28;20674;-70
2021/06/21 03:54:06;;;;;;;9.07;4.80;;;;;;;16.53;100.00;97230.50;5106220;27;20213;-70
2021/06/21 03:56:34;;;;;;;10.10;4.47;;;;;;;16.47;100.00;97232.19;5105101;28;20729;-70
2021/06/21 03:59:02;;;;;;;8.33;3.97;;;;;;;16.51;100.00;97224.56;5101889;28;20233;-69
2021/06/21 04:01:30;;;;;;;8.23;4.50;;;;;;;16.52;100.00;97234.22;5103031;28;20471;-70
2021/06/21 04:03:59;;;;;;;6.23;4.47;;;;;;;16.67;100.00;97248.03;5097455;28;20239;-70
2021/06/21 04:06:27;;;;;;;11.40;5.10;;;;;;;16.62;100.00;97255.91;5104453;27;20201;-69
2021/06/21 04:08:55;;;;;;;12.37;4.70;;;;;;;16.61;100.00;97252.41;5103618;28;20289;-68
2021/06/21 04:11:26;;;;;;;10.40;5.20;;;;;;;16.66;100.00;97266.97;5106159;27;20214;-71
2021/06/21 04:13:54;;;;;;;6.67;5.17;;;;;;;16.63;100.00;97268.25;5097332;28;20579;-70
2021/06/21 04:16:21;;;;;;;8.80;4.77;;;;;;;16.56;100.00;97268.31;5102508;28;20791;-71
2021/06/21 04:18:49;;;;;;;9.87;4.60;;;;;;;16.64;100.00;97270.69;5106802;27;20232;-71
2021/06/21 04:21:20;;;;;;;7.97;4.80;;;;;;;16.75;100.00;97266.47;5104237;27;20205;-69
2021/06/21 04:23:48;;;;;;;11.73;4.80;;;;;;;16.78;100.00;97266.03;5104876;28;20296;-69
2021/06/21 04:26:16;;;;;;;7.73;4.53;;;;;;;16.93;100.00;97267.53;5102908;27;20217;-71
2021/06/21 04:28:44;;;;;;;5.37;4.23;;;;;;;16.97;100.00;97273.25;5105083;28;20217;-69
2021/06/21 04:31:12;;;;;;;7.40;4.60;;;;;;;16.89;100.00;97274.38;5101665;28;20677;-69
2021/06/21 04:33:40;;;;;;;7.60;4.83;;;;;;;16.89;100.00;97277.84;5103967;28;20225;-72
2021/06/21 04:36:08;;;;;;;6.30;5.13;;;;;;;16.90;100.00;97279.50;5104574;28;20205;-70
2021/06/21 04:38:38;;;;;;;10.73;4.37;;;;;;;16.94;100.00;97282.56;5102241;28;20680;-69
2021/06/21 04:41:06;;;;;;;6.07;4.57;;;;;;;16.97;100.00;97287.47;5101979;28;20304;-71
2021/06/21 04:43:35;;;;;;;8.43;4.33;;;;;;;17.17;100.00;97294.47;5101985;28;20692;-70
2021/06/21 04:46:04;;;;;;;5.30;4.80;;;;;;;17.25;100.00;97283.47;5102847;27;20206;-71
2021/06/21 04:48:32;;;;;;;7.70;4.77;;;;;;;17.10;100.00;97283.03;5104376;27;20877;-74
2021/06/21 04:51:00;;;;;;;8.87;5.10;;;;;;;17.11;100.00;97273.94;5103735;28;20201;-75
2021/06/21 04:53:28;;;;;;;5.67;4.57;;;;;;;17.12;100.00;97276.41;5106636;27;20452;-73
2021/06/21 04:56:00;;;;;;;6.63;4.27;;;;;;;17.05;100.00;97287.19;5098744;28;20407;-75
2021/06/21 04:58:34;;;;;;;5.27;4.53;;;;;;;16.98;100.00;97296.31;5101051;27;20678;-71
2021/06/21 05:01:02;;;;;;;7.70;4.43;;;;;;;17.20;100.00;97300.19;5100478;27;20205;-71
2021/06/21 05:03:32;;;;;;;5.13;4.50;;;;;;;17.24;100.00;97305.94;5101840;27;20212;-70
2021/06/21 05:06:00;;;;;;;6.80;4.03;;;;;;;17.42;100.00;97304.28;5101446;28;20208;-72
2021/06/21 05:08:28;;;;;;;6.03;4.60;;;;;;;17.27;100.00;97301.97;5102857;28;20705;-72
2021/06/21 05:10:56;;;;;;;5.57;4.40;;;;;;;17.34;100.00;97295.50;5098301;28;20217;-72
2021/06/21 05:13:26;;;;;;;10.50;4.93;;;;;;;17.32;100.00;97302.13;5103842;28;20349;-71
2021/06/21 05:15:53;;;;;;;6.50;4.70;;;;;;;17.42;100.00;97296.25;5100103;27;20799;-71
2021/06/21 05:18:22;;;;;;;7.13;4.83;;;;;;;17.32;100.00;97292.25;5101638;28;20680;-72
2021/06/21 05:20:50;;;;;;;9.50;4.60;;;;;;;17.36;100.00;97290.75;5099507;28;20205;-72
2021/06/21 05:23:18;;;;;;;12.40;4.73;;;;;;;17.48;100.00;97289.97;5099143;27;20221;-72
2021/06/21 05:25:46;;;;;;;4.87;4.43;;;;;;;17.28;100.00;97290.22;5101176;28;20668;-70
2021/06/21 05:28:14;;;;;;;7.53;4.83;;;;;;;17.20;100.00;97286.81;5101907;28;20460;-69
2021/06/21 05:30:44;;;;;;;6.93;5.47;;;;;;;17.19;100.00;97287.03;5103133;27;20201;-72
2021/06/21 05:33:13;;;;;;;5.77;4.80;;;;;;;17.21;100.00;97284.94;5101937;28;20208;-70
2021/06/21 05:35:41;;;;;;;9.40;5.80;;;;;;;17.27;100.00;97276.03;5100032;27;20213;-70
2021/06/21 05:38:09;;;;;;;6.00;4.73;;;;;;;17.42;100.00;97280.16;5101467;28;20245;-70
2021/06/21 05:40:37;;;;;;;7.10;5.20;;;;;;;17.53;100.00;97274.03;5098307;27;20213;-70
2021/06/21 05:43:05;;;;;;;8.80;5.87;;;;;;;17.46;100.00;97284.84;5103473;27;20205;-70
2021/06/21 05:45:33;;;;;;;9.83;5.53;;;;;;;17.53;100.00;97289.31;5102461;28;20859;-70
2021/06/21 05:48:03;;;;;;;5.13;4.67;;;;;;;17.71;100.00;97297.28;5104320;28;20525;-71
2021/06/21 05:50:32;;;;;;;7.07;5.20;;;;;;;17.92;100.00;97295.97;5098687;28;20212;-72
2021/06/21 05:53:00;;;;;;;8.77;5.97;;;;;;;17.99;100.00;97300.41;5099755;28;20673;-71
2021/06/21 05:55:28;;;;;;;10.13;7.47;;;;;;;18.11;100.00;97301.31;5103104;27;20232;-70
2021/06/21 05:57:55;;;;;;;10.40;6.43;;;;;;;18.15;100.00;97304.31;5103178;27;20225;-70
2021/06/21 06:00:25;;;;;;;8.40;6.43;;;;;;;18.15;100.00;97307.84;5102757;28;20406;-70
2021/06/21 06:02:52;;;;;;;6.47;5.87;;;;;;;18.08;100.00;97312.50;5104106;28;20202;-70
2021/06/21 06:05:22;;;;;;;6.50;5.70;;;;;;;18.02;100.00;97308.84;5103533;28;20209;-69
2021/06/21 06:07:51;;;;;;;6.57;5.83;;;;;;;18.21;100.00;97303.44;5103186;28;20218;-70
2021/06/21 06:10:20;;;;;;;7.60;5.73;;;;;;;18.26;100.00;97300.88;5101127;28;20202;-70
2021/06/21 06:12:48;;;;;;;7.17;6.47;;;;;;;18.29;100.00;97297.72;5104536;27;20214;-70
2021/06/21 06:15:17;;;;;;;6.47;5.30;;;;;;;18.45;100.00;97303.44;5102845;28;20236;-70
2021/06/21 06:17:46;;;;;;;6.73;4.83;;;;;;;18.52;100.00;97306.81;5100133;28;20241;-70
2021/06/21 06:20:14;;;;;;;6.17;4.90;;;;;;;18.63;100.00;97313.25;5102361;28;20201;-70
2021/06/21 06:22:43;;;;;;;9.77;4.90;;;;;;;18.67;100.00;97319.78;5099840;28;20201;-70
2021/06/21 06:25:14;;;;;;;9.37;4.70;;;;;;;18.51;100.00;97314.06;5098972;27;20209;-70
2021/06/21 06:27:41;;;;;;;8.20;4.73;;;;;;;18.84;100.00;97316.41;5101212;28;20225;-70
2021/06/21 06:30:11;;;;;;;9.90;5.97;;;;;;;18.85;100.00;97320.75;5096986;28;20206;-70
2021/06/21 06:32:39;;;;;;;9.43;4.73;;;;;;;19.04;100.00;97318.78;5097134;28;20201;-70
2021/06/21 06:35:09;;;;;;;6.97;5.03;;;;;;;19.14;100.00;97321.66;5099213;28;20289;-69
2021/06/21 06:37:37;;;;;;;8.77;4.10;;;;;;;19.22;100.00;97317.81;5101396;28;20225;-70
2021/06/21 06:40:07;;;;;;;6.10;3.70;;;;;;;19.19;100.00;97321.78;5103928;27;20197;-72
2021/06/21 06:42:35;;;;;;;7.20;4.63;;;;;;;19.26;100.00;97318.13;5103456;27;20495;-72
2021/06/21 06:45:04;;;;;;;4.83;4.10;;;;;;;19.28;100.00;97324.09;5098394;28;20712;-71
2021/06/21 06:47:32;;;;;;;6.67;3.80;;;;;;;19.26;100.00;97326.19;5101335;28;20221;-70
2021/06/21 06:50:00;;;;;;;6.77;4.30;;;;;;;19.49;100.00;97333.38;5096393;28;20194;-70
2021/06/21 06:52:29;;;;;;;6.20;3.43;;;;;;;19.65;100.00;97331.81;5099119;27;20454;-73
2021/06/21 06:57:44;;;;;;;7.67;3.20;;;;;;;19.78;98.14;97334.22;5098568;28;20230;-74
2021/06/21 07:00:14;;;;;;;9.93;3.40;;;;;;;19.74;98.69;97343.00;5098236;28;20202;-73
2021/06/21 07:02:43;;;;;;;8.20;3.63;;;;;;;19.89;100.00;97332.56;5099442;28;20333;-73
2021/06/21 07:05:12;;;;;;;5.07;3.20;;;;;;;20.18;95.81;97335.22;5098598;28;20657;-73
2021/06/21 07:07:40;;;;;;;5.93;3.20;;;;;;;20.14;98.88;97344.84;5098211;28;20237;-72
2021/06/21 07:10:09;;;;;;;6.00;3.40;;;;;;;20.16;99.18;97340.03;5099428;28;20205;-73
2021/06/21 07:12:37;;;;;;;7.30;3.87;;;;;;;20.38;95.30;97344.72;5101769;28;20210;-72
2021/06/21 07:15:08;;;;;;;4.33;3.57;;;;;;;20.60;91.79;97341.28;5106892;27;20213;-73
2021/06/21 07:17:35;;;;;;;5.50;3.27;;;;;;;20.51;88.26;97336.31;5097702;28;20230;-74
2021/06/21 07:20:04;;;;;;;5.90;2.93;;;;;;;20.73;87.21;97335.59;5099021;28;20350;-73
2021/06/21 07:22:32;;;;;;;6.40;2.90;;;;;;;20.62;88.61;97336.47;5102139;28;20206;-73
2021/06/21 07:25:00;;;;;;;5.13;3.10;;;;;;;20.72;88.62;97343.91;5099264;28;20208;-73
2021/06/21 07:27:28;;;;;;;7.60;3.47;;;;;;;20.71;89.24;97342.28;5097715;28;20250;-76
2021/06/21 07:29:57;;;;;;;6.67;3.13;;;;;;;20.95;91.82;97342.94;5097228;28;20693;-72
2021/06/21 07:32:27;;;;;;;3.53;2.63;;;;;;;21.20;88.86;97338.97;5095158;28;20205;-74
2021/06/21 07:34:55;;;;;;;8.03;3.83;;;;;;;20.88;83.25;97336.91;5103275;28;20202;-73
2021/06/21 07:37:23;;;;;;;5.23;3.30;;;;;;;21.01;83.46;97327.66;5113090;28;20725;-75
2021/06/21 07:39:51;;;;;;;4.67;3.10;;;;;;;21.22;83.84;97329.59;5104232;28;20222;-70
2021/06/21 07:42:19;;;;;;;9.87;3.23;;;;;;;21.29;81.61;97336.66;5099209;28;20677;-71
2021/06/21 07:44:47;;;;;;;6.07;3.67;;;;;;;21.51;82.69;97333.97;5100103;28;20605;-72
2021/06/21 07:47:15;;;;;;;8.30;3.30;;;;;;;21.72;79.48;97328.84;5093208;28;20225;-71
2021/06/21 07:49:45;;;;;;;7.50;2.60;;;;;;;21.85;79.20;97327.63;5099565;28;20209;-72
2021/06/21 07:52:12;;;;;;;10.77;2.87;;;;;;;21.94;74.37;97332.31;5098189;28;20673;-71
2021/06/21 07:54:41;;;;;;;6.37;2.80;;;;;;;21.63;71.62;97328.44;5101098;28;20202;-70
2021/06/21 07:57:10;;;;;;;8.20;3.00;;;;;;;21.78;73.21;97333.22;5098598;28;20226;-71
2021/06/21 07:59:38;;;;;;;4.77;2.43;;;;;;;21.61;71.75;97342.19;5100837;28;20674;-70
2021/06/21 08:02:06;;;;;;;8.17;2.80;;;;;;;21.54;76.14;97339.66;5096936;28;20202;-72
2021/06/21 08:04:34;;;;;;;8.40;2.40;;;;;;;21.32;74.65;97336.16;5098854;28;20476;-70
2021/06/21 08:07:05;;;;;;;7.80;3.37;;;;;;;21.02;75.50;97332.78;5102629;28;20220;-72
2021/06/21 08:09:32;;;;;;;6.40;2.30;;;;;;;20.76;78.28;97334.28;5100770;28;20209;-70
2021/06/21 08:12:01;;;;;;;8.63;2.90;;;;;;;20.77;78.98;97320.56;5100542;28;20288;-71
2021/06/21 08:14:29;;;;;;;7.33;2.80;;;;;;;20.95;78.78;97318.69;5102897;28;20209;-71
2021/06/21 08:16:57;;;;;;;5.00;2.33;;;;;;;21.20;74.68;97320.09;5098225;28;20212;-72
2021/06/21 08:19:25;;;;;;;7.57;2.80;;;;;;;21.46;76.26;97323.13;5100523;28;20225;-70
2021/06/21 08:21:53;;;;;;;4.83;2.90;;;;;;;21.66;75.79;97323.38;5101569;28;20681;-71
2021/06/21 08:24:22;;;;;;;8.43;2.53;;;;;;;21.75;71.57;97331.84;5098927;28;20674;-70
2021/06/21 08:26:50;;;;;;;6.13;3.40;;;;;;;21.74;70.10;97327.53;5101384;28;20201;-70
2021/06/21 08:29:18;;;;;;;3.53;2.10;;;;;;;21.94;72.85;97328.78;5100263;28;20205;-74
2021/06/21 08:31:46;;;;;;;5.63;2.83;;;;;;;22.24;75.61;97322.91;5108029;27;20210;-71
2021/06/21 08:34:14;;;;;;;4.20;2.53;;;;;;;22.12;68.49;97331.16;5106724;27;20233;-70
2021/06/21 08:36:43;;;;;;;6.87;2.30;;;;;;;22.05;68.84;97330.53;5109282;27;20201;-72
2021/06/21 08:39:11;;;;;;;5.10;2.80;;;;;;;21.85;71.04;97333.84;5103597;28;20225;-73
2021/06/21 08:41:41;;;;;;;6.13;3.03;;;;;;;21.96;68.42;97345.53;5102354;28;20205;-73
2021/06/21 08:44:10;;;;;;;7.57;3.00;;;;;;;21.89;66.16;97343.06;5103117;28;20213;-71
2021/06/21 08:46:38;;;;;;;5.47;2.20;;;;;;;21.87;68.28;97350.59;5102614;27;20681;-72
2021/06/21 08:49:07;;;;;;;4.80;2.93;;;;;;;21.97;67.40;97344.47;5099552;28;20217;-73
2021/06/21 08:51:36;;;;;;;5.73;2.40;;;;;;;22.05;66.67;97341.34;5104669;28;20198;-71
2021/06/21 08:54:04;;;;;;;5.53;2.23;;;;;;;22.34;66.51;97335.66;5103632;27;20247;-72
2021/06/21 08:56:32;;;;;;;4.57;2.77;;;;;;;22.38;67.14;97338.66;5104883;28;20216;-72
2021/06/21 08:59:05;;;;;;;9.13;2.53;;;;;;;22.66;65.99;97347.56;5104525;27;20249;-71
2021/06/21 09:01:34;;;;;;;4.17;2.23;;;;;;;22.58;64.04;97334.53;5103495;28;20247;-72
2021/06/21 09:04:02;;;;;;;6.73;2.43;;;;;;;22.29;65.18;97326.72;5099379;28;20202;-72
2021/06/21 09:06:36;;;;;;;7.97;2.47;;;;;;;22.47;62.98;97318.25;5105445;27;20198;-72
2021/06/21 09:09:05;;;;;;;6.13;2.67;;;;;;;22.55;67.06;97328.59;5098555;28;20219;-71
2021/06/21 09:11:54;;;;;;;7.07;2.57;;;;;;;22.53;60.72;97328.00;5102271;27;20206;-73
2021/06/21 09:14:31;;;;;;;6.53;2.87;;;;;;;22.55;61.40;97325.88;5099803;28;20267;-71
2021/06/21 09:17:00;;;;;;;5.77;3.30;;;;;;;22.62;60.94;97314.03;5102638;28;20197;-71
2021/06/21 09:19:29;;;;;;;7.47;3.07;;;;;;;22.64;61.06;97311.91;5103905;27;20668;-74
2021/06/21 09:21:57;;;;;;;4.43;2.27;;;;;;;22.81;61.98;97315.25;5104226;28;20213;-72
2021/06/21 09:24:27;;;;;;;3.00;2.07;;;;;;;23.14;59.67;97315.19;5103036;27;20204;-70
2021/06/21 09:26:56;;;;;;;4.03;2.70;;;;;;;22.99;61.56;97313.22;5104340;28;20212;-71
2021/06/21 09:29:36;;;;;;;7.90;2.40;;;;;;;22.93;60.04;97315.06;5100374;28;20225;-71
2021/06/21 09:32:41;;;;;;;3.27;2.03;;;;;;;23.20;58.92;97310.59;5105920;27;20206;-72
2021/06/21 09:35:34;;;;;;;5.60;1.83;;;;;;;23.20;60.17;97314.13;5103562;28;20216;-72
2021/06/21 09:38:05;;;;;;;6.17;2.10;;;;;;;23.07;61.20;97325.38;5102174;28;20668;-71
2021/06/21 09:40:34;;;;;;;7.20;2.87;;;;;;;23.31;62.83;97325.00;5103125;28;20586;-71
2021/06/21 09:43:19;;;;;;;7.33;2.27;;;;;;;23.58;62.92;97327.53;5103179;28;20816;-72
2021/06/21 09:46:13;;;;;;;9.40;2.60;;;;;;;23.73;59.22;97326.00;5096153;28;20686;-73
2021/06/21 09:48:44;;;;;;;3.00;1.80;;;;;;;24.11;61.13;97318.53;5084115;27;20220;-73
2021/06/21 09:51:24;;;;;;;4.03;2.27;;;;;;;23.86;59.54;97325.47;5096446;28;20198;-70
2021/06/21 09:53:54;;;;;;;4.70;2.47;;;;;;;24.16;58.82;97317.69;5093469;28;20233;-71
2021/06/21 09:56:36;;;;;;;7.83;2.80;;;;;;;24.19;58.91;97323.41;5082602;28;20642;-72
2021/06/21 09:59:20;;;;;;;4.80;2.10;;;;;;;24.18;55.14;97319.06;5087034;28;20222;-72
2021/06/21 10:02:02;;;;;;;4.23;1.77;;;;;;;23.92;55.60;97312.78;5099378;28;20237;-71
2021/06/21 10:04:31;;;;;;;3.77;2.33;;;;;;;23.85;55.85;97305.69;5101712;28;20575;-73
2021/06/21 10:06:59;;;;;;;4.20;1.90;;;;;;;24.19;58.34;97301.75;5095120;28;20705;-71
2021/06/21 10:09:27;;;;;;;4.47;2.20;;;;;;;24.22;56.20;97309.31;5096555;28;20217;-71
2021/06/21 10:11:55;;;;;;;6.07;2.47;;;;;;;24.30;57.78;97310.69;5100962;27;20223;-72
2021/06/21 10:14:26;;;;;;;3.70;1.80;;;;;;;24.24;55.73;97317.16;5100652;27;20209;-71
2021/06/21 10:16:55;;;;;;;7.83;2.60;;;;;;;24.45;53.25;97315.28;5100038;28;20205;-71
2021/06/21 10:19:24;;;;;;;3.03;1.90;;;;;;;24.51;54.56;97311.50;5101818;28;20351;-74
2021/06/21 10:21:55;;;;;;;6.07;2.30;;;;;;;24.63;53.50;97315.81;5100232;28;20226;-72
2021/06/21 10:24:30;;;;;;;3.60;2.00;;;;;;;24.92;53.65;97307.94;5102676;28;20202;-70
2021/06/21 10:26:58;;;;;;;5.30;2.40;;;;;;;24.98;54.53;97309.53;5104058;27;20229;-71
2021/06/21 10:29:27;;;;;;;3.47;1.97;;;;;;;24.84;54.70;97312.03;5103148;27;20205;-71
2021/06/21 10:31:55;;;;;;;4.13;1.93;;;;;;;25.02;56.30;97304.38;5099728;27;20202;-72
2021/06/21 10:34:24;;;;;;;2.83;1.90;;;;;;;25.01;55.27;97310.91;5100286;28;20316;-72
2021/06/21 10:36:54;;;;;;;5.23;2.30;;;;;;;24.78;54.37;97302.25;5094786;28;20205;-72
2021/06/21 10:39:23;;;;;;;6.60;2.80;;;;;;;24.67;56.51;97300.63;5100882;28;20206;-70
2021/06/21 10:42:19;;;;;;;4.37;2.50;;;;;;;25.34;53.95;97305.09;5102280;28;20225;-71
2021/06/21 10:44:49;;;;;;;2.27;1.90;;;;;;;25.77;50.03;97293.81;5100524;27;20209;-71
2021/06/21 10:47:42;;;;;;;6.63;2.87;;;;;;;26.54;48.72;97300.63;5101522;27;20717;-72
2021/06/21 10:50:13;;;;;;;1.93;1.70;;;;;;;26.93;47.51;97296.19;5064652;28;20202;-72
2021/06/21 10:52:44;;;;;;;17.83;15.87;;;;;;;27.47;46.68;97304.28;5095365;28;20270;-72
2021/06/21 10:55:43;;;;;;;5.67;3.90;;;;;;;28.33;43.08;97306.06;5100627;28;20232;-72
2021/06/21 10:58:45;;;;;;;11.40;10.40;;;;;;;28.12;42.52;97311.84;5088039;28;20221;-72
2021/06/21 11:01:17;;;;;;;50.33;45.60;;;;;;;28.69;40.86;97310.13;5100813;27;20216;-71
2021/06/21 11:03:46;;;;;;;4.00;3.13;;;;;;;27.77;42.20;97311.25;5101265;28;20593;-72
2021/06/21 11:06:34;;;;;;;3.40;2.00;;;;;;;28.10;43.67;97314.03;5100346;28;20212;-72
2021/06/21 11:09:02;;;;;;;3.07;1.83;;;;;;;28.56;41.70;97300.81;5090895;28;20232;-71
2021/06/21 11:11:48;;;;;;;8.50;2.20;;;;;;;28.86;39.99;97298.69;5101330;28;20596;-72
2021/06/21 11:14:24;;;;;;;3.63;1.73;;;;;;;28.30;41.71;97287.59;5098417;28;20221;-70
2021/06/21 11:17:15;;;;;;;6.13;1.80;;;;;;;27.99;42.98;97290.78;5098650;28;20593;-71
2021/06/21 11:19:43;;;;;;;7.47;2.10;;;;;;;28.94;40.14;97288.97;5102714;28;20256;-72
2021/06/21 11:22:13;;;;;;;4.93;2.13;;;;;;;29.35;38.01;97288.16;5097572;28;20733;-72
2021/06/21 11:24:52;;;;;;;3.20;1.80;;;;;;;28.59;41.53;97278.41;5100926;28;20262;-72
2021/06/21 11:27:23;;;;;;;2.43;1.83;;;;;;;29.66;38.87;97284.81;5099281;28;20232;-70
2021/06/21 11:29:53;;;;;;;5.00;2.17;;;;;;;29.00;38.59;97277.66;5099223;28;20217;-71
2021/06/21 11:32:22;;;;;;;4.47;1.60;;;;;;;28.92;39.44;97285.75;5100684;28;20205;-72
2021/06/21 11:34:53;;;;;;;3.73;2.37;;;;;;;29.07;39.50;97282.72;5104728;28;20199;-72
2021/06/21 11:37:39;;;;;;;2.83;1.60;;;;;;;28.91;38.01;97281.41;5100908;28;20247;-72
2021/06/21 11:40:37;;;;;;;3.37;1.67;;;;;;;28.59;38.46;97278.41;5098774;28;20205;-72
2021/06/21 11:43:18;;;;;;;4.90;2.10;;;;;;;28.02;42.07;97287.47;5016090;28;20441;-72
2021/06/21 11:45:54;;;;;;;3.57;1.57;;;;;;;28.27;41.74;97275.41;5085783;28;20224;-72